createdAt,value
2022-11-07T00:01:31.253Z,93838.38
2022-11-07T00:03:57.663Z,93829.53
2022-11-07T00:06:24.090Z,93840.81
2022-11-07T00:08:53.922Z,93804.59
2022-11-07T00:11:21.807Z,93851.25
2022-11-07T00:13:48.194Z,93804.38
2022-11-07T00:16:14.662Z,93827.91
2022-11-07T00:18:41.084Z,93827.94
2022-11-07T00:21:09.735Z,93822.28
2022-11-07T00:23:39.061Z,93860.13
2022-11-07T00:26:12.284Z,93858.91
2022-11-07T00:28:41.324Z,93835.56
2022-11-07T00:31:09.671Z,93870.97
2022-11-07T00:33:36.349Z,93846.81
2022-11-07T00:36:02.799Z,93842.00
2022-11-07T00:38:29.436Z,93875.16
2022-11-07T00:40:57.925Z,93881.81
2022-11-07T00:43:25.151Z,93876.56
2022-11-07T00:45:51.966Z,93870.38
2022-11-07T00:48:18.419Z,93881.03
2022-11-07T00:50:45.109Z,93881.25
2022-11-07T00:53:11.969Z,93869.16
2022-11-07T00:55:38.600Z,93880.22
2022-11-07T00:58:08.650Z,93894.72
2022-11-07T01:00:39.172Z,93897.53
2022-11-07T01:03:24.219Z,93880.25
2022-11-07T01:06:02.051Z,93902.38
2022-11-07T01:08:29.294Z,93881.25
2022-11-07T01:10:56.201Z,93910.44
2022-11-07T01:13:23.422Z,93900.34
2022-11-07T01:15:50.087Z,93909.97
2022-11-07T01:18:16.665Z,93896.72
2022-11-07T01:20:43.110Z,93897.31
2022-11-07T01:23:10.159Z,93903.38
2022-11-07T01:25:40.159Z,93913.25
2022-11-07T01:28:07.738Z,93914.00
2022-11-07T01:30:38.191Z,93899.31
2022-11-07T01:33:04.613Z,93902.72
2022-11-07T01:35:32.739Z,93913.59
2022-11-07T01:37:59.162Z,93896.50
2022-11-07T01:40:25.645Z,93901.53
2022-11-07T01:42:52.032Z,93912.97
2022-11-07T01:45:24.685Z,93919.63
2022-11-07T01:48:00.766Z,93922.84
2022-11-07T01:50:27.794Z,93928.06
2022-11-07T01:52:56.293Z,93929.19
2022-11-07T01:55:28.395Z,93929.38
2022-11-07T01:58:05.698Z,93928.75
2022-11-07T02:00:33.854Z,93942.44
2022-11-07T02:03:09.472Z,93931.97
2022-11-07T02:05:44.296Z,93948.63
2022-11-07T02:08:11.928Z,93948.84
2022-11-07T02:10:40.332Z,93950.41
2022-11-07T02:13:07.429Z,93933.88
2022-11-07T02:15:35.729Z,93933.88
2022-11-07T02:18:03.469Z,93935.53
2022-11-07T02:20:29.981Z,93943.19
2022-11-07T02:22:57.671Z,93940.59
2022-11-07T02:25:24.177Z,93914.25
2022-11-07T02:27:57.569Z,93925.94
2022-11-07T02:30:27.825Z,93928.22
2022-11-07T02:32:54.254Z,93933.47
2022-11-07T02:35:40.807Z,93941.69
2022-11-07T02:38:45.122Z,93924.38
2022-11-07T02:41:19.101Z,93943.16
2022-11-07T02:43:51.601Z,93912.69
2022-11-07T02:46:18.441Z,93916.91
2022-11-07T02:48:50.767Z,93940.00
2022-11-07T02:51:25.632Z,93933.56
2022-11-07T02:53:53.220Z,93929.53
2022-11-07T02:56:20.286Z,93927.91
2022-11-07T02:58:47.189Z,93938.63
2022-11-07T03:01:14.159Z,93944.50
2022-11-07T03:03:46.136Z,93938.75
2022-11-07T03:06:17.210Z,93948.00
2022-11-07T03:08:44.235Z,93941.75
2022-11-07T03:11:11.408Z,93939.91
2022-11-07T03:13:38.520Z,93942.13
2022-11-07T03:16:09.947Z,93925.47
2022-11-07T03:18:37.209Z,93924.72
2022-11-07T03:21:04.965Z,93931.91
2022-11-07T03:23:31.901Z,93920.22
2022-11-07T03:25:58.295Z,93896.88
2022-11-07T03:28:24.866Z,93919.34
2022-11-07T03:30:51.990Z,93928.19
2022-11-07T03:33:18.604Z,93944.91
2022-11-07T03:35:45.056Z,93932.25
2022-11-07T03:38:11.722Z,93944.56
2022-11-07T03:40:39.486Z,93930.56
2022-11-07T03:43:05.897Z,93934.69
2022-11-07T03:45:32.284Z,93925.75
2022-11-07T03:47:58.685Z,93932.19
2022-11-07T03:50:25.104Z,93940.81
2022-11-07T03:52:51.557Z,93932.56
2022-11-07T03:55:20.857Z,93939.69
2022-11-07T03:57:47.428Z,93942.69
2022-11-07T04:00:15.781Z,93932.06
2022-11-07T04:02:43.006Z,93934.31
2022-11-07T04:05:10.578Z,93954.25
2022-11-07T04:07:37.081Z,93951.59
2022-11-07T04:10:03.863Z,93945.22
2022-11-07T04:12:48.902Z,93939.81
2022-11-07T04:15:42.148Z,93936.81
2022-11-07T04:18:08.574Z,93952.13
2022-11-07T04:20:35.176Z,93943.97
2022-11-07T04:23:01.575Z,93909.78
2022-11-07T04:25:46.549Z,93943.19
2022-11-07T04:28:16.182Z,93945.19
2022-11-07T04:30:42.561Z,93952.06
2022-11-07T04:33:09.453Z,93944.88
2022-11-07T04:35:35.835Z,93936.59
2022-11-07T04:38:02.253Z,93959.97
2022-11-07T04:40:29.809Z,93949.00
2022-11-07T04:42:56.625Z,93937.22
2022-11-07T04:45:23.323Z,93950.34
2022-11-07T04:47:49.872Z,93929.75
2022-11-07T04:50:19.662Z,93958.22
2022-11-07T04:52:47.450Z,93948.88
2022-11-07T04:55:26.797Z,93970.69
2022-11-07T04:57:53.542Z,93964.16
2022-11-07T05:00:20.276Z,93964.59
2022-11-07T05:02:56.112Z,93957.44
2022-11-07T05:05:22.672Z,93953.16
2022-11-07T05:07:49.220Z,93942.75
2022-11-07T05:10:18.691Z,93965.19
2022-11-07T05:12:45.191Z,93936.50
2022-11-07T05:15:11.575Z,93941.13
2022-11-07T05:17:37.977Z,93947.59
2022-11-07T05:20:04.835Z,93943.91
2022-11-07T05:22:55.129Z,93950.91
2022-11-07T05:25:22.587Z,93967.13
2022-11-07T05:27:48.980Z,93968.38
2022-11-07T05:30:15.384Z,93953.47
2022-11-07T05:33:11.955Z,93975.88
2022-11-07T05:35:54.107Z,93979.81
2022-11-07T05:38:50.076Z,93975.94
2022-11-07T05:41:18.245Z,93944.97
2022-11-07T05:43:44.734Z,93965.63
2022-11-07T05:46:12.346Z,93981.44
2022-11-07T05:48:45.544Z,93956.66
2022-11-07T05:51:11.943Z,93961.84
2022-11-07T05:53:38.422Z,93987.00
2022-11-07T05:56:05.072Z,93980.06
2022-11-07T05:58:31.504Z,93970.19
2022-11-07T06:01:04.385Z,93963.09
2022-11-07T06:03:34.839Z,93972.22
2022-11-07T06:06:02.320Z,93986.88
2022-11-07T06:08:28.724Z,93988.31
2022-11-07T06:10:55.203Z,93961.69
2022-11-07T06:13:21.605Z,93940.56
2022-11-07T06:15:48.042Z,93984.81
2022-11-07T06:18:17.946Z,93970.53
2022-11-07T06:21:25.941Z,93989.72
2022-11-07T06:23:52.242Z,94001.81
2022-11-07T06:26:18.642Z,93991.63
2022-11-07T06:28:45.162Z,93976.19
2022-11-07T06:31:11.641Z,94002.78
2022-11-07T06:33:41.410Z,93994.03
2022-11-07T06:36:10.490Z,94010.41
2022-11-07T06:38:37.895Z,94018.31
2022-11-07T06:41:09.389Z,94011.88
2022-11-07T06:43:35.916Z,93998.13
2022-11-07T06:46:05.280Z,94007.00
2022-11-07T06:48:31.725Z,94019.94
2022-11-07T06:51:20.216Z,94031.25
2022-11-07T06:53:46.637Z,94002.19
2022-11-07T06:56:15.716Z,93993.28
2022-11-07T06:58:42.436Z,94025.38
2022-11-07T07:01:13.627Z,94038.00
2022-11-07T07:03:41.186Z,94027.94
2022-11-07T07:06:15.014Z,94028.66
2022-11-07T07:08:41.974Z,94019.28
2022-11-07T07:11:28.740Z,94044.63
2022-11-07T07:14:10.237Z,94050.53
2022-11-07T07:16:38.265Z,94051.22
2022-11-07T07:19:11.984Z,93994.38
2022-11-07T07:21:51.661Z,94026.16
2022-11-07T07:24:28.312Z,94021.06
2022-11-07T07:26:59.771Z,94043.22
2022-11-07T07:29:26.234Z,94021.03
2022-11-07T07:32:02.711Z,94037.59
2022-11-07T07:34:42.120Z,94047.72
2022-11-07T07:37:09.406Z,94040.91
2022-11-07T07:39:35.848Z,94018.00
2022-11-07T07:42:07.446Z,94028.00
2022-11-07T07:44:34.396Z,94046.13
2022-11-07T07:47:00.934Z,94030.16
2022-11-07T07:49:27.442Z,94047.75
2022-11-07T07:51:54.231Z,94058.06
2022-11-07T07:54:20.633Z,94039.69
2022-11-07T07:56:49.027Z,94061.91
2022-11-07T07:59:15.554Z,94055.81
2022-11-07T08:01:42.031Z,94056.13
2022-11-07T08:04:08.552Z,94066.78
2022-11-07T08:06:37.054Z,94056.75
2022-11-07T08:09:04.540Z,94042.19
2022-11-07T08:11:37.866Z,94057.97
2022-11-07T08:14:20.788Z,94064.75
2022-11-07T08:16:55.465Z,94052.66
2022-11-07T08:19:25.022Z,94035.78
2022-11-07T08:21:51.439Z,94033.31
2022-11-07T08:24:17.937Z,94043.88
2022-11-07T08:26:50.181Z,94023.13
2022-11-07T08:29:16.676Z,93998.06
2022-11-07T08:31:43.136Z,94034.00
2022-11-07T08:34:13.579Z,94045.03
2022-11-07T08:36:44.285Z,94029.00
2022-11-07T08:39:10.846Z,94003.75
2022-11-07T08:41:37.286Z,94023.63
2022-11-07T08:44:03.764Z,94040.22
2022-11-07T08:46:41.444Z,94047.03
2022-11-07T08:49:07.829Z,94034.50
2022-11-07T08:51:34.212Z,94032.66
2022-11-07T08:54:00.644Z,94029.06
2022-11-07T08:56:47.961Z,94053.22
2022-11-07T08:59:15.191Z,94034.31
2022-11-07T09:02:39.114Z,94042.63
2022-11-07T09:04:43.757Z,94009.25
2022-11-07T09:07:10.228Z,94030.38
2022-11-07T09:09:46.714Z,94035.63
2022-11-07T09:12:13.021Z,94058.97
2022-11-07T09:14:39.441Z,94050.53
2022-11-07T09:17:05.835Z,94050.53
2022-11-07T09:19:32.217Z,94027.16
2022-11-07T09:22:12.972Z,94035.22
2022-11-07T09:24:39.413Z,94026.75
2022-11-07T09:27:05.960Z,94021.44
2022-11-07T09:29:32.505Z,94016.84
2022-11-07T09:32:02.469Z,94023.06
2022-11-07T09:34:39.459Z,94035.72
2022-11-07T09:37:05.850Z,94040.31
2022-11-07T09:39:32.528Z,94038.56
2022-11-07T09:42:14.084Z,94048.81
2022-11-07T09:44:40.993Z,94053.56
2022-11-07T09:47:23.270Z,94054.56
2022-11-07T09:49:52.161Z,94053.56
2022-11-07T09:52:26.072Z,94023.16
2022-11-07T09:55:02.701Z,94069.59
2022-11-07T09:57:33.394Z,94057.53
2022-11-07T10:00:16.701Z,94044.59
2022-11-07T10:02:50.067Z,94033.34
2022-11-07T10:05:56.724Z,94043.59
2022-11-07T10:08:45.514Z,94056.03
2022-11-07T10:11:30.102Z,94025.97
2022-11-07T10:14:35.091Z,94054.75
2022-11-07T10:17:10.039Z,94042.56
2022-11-07T10:19:50.344Z,94054.25
2022-11-07T10:22:31.478Z,94029.81
2022-11-07T10:24:57.821Z,94041.59
2022-11-07T10:27:27.144Z,94028.13
2022-11-07T10:29:55.959Z,94039.13
2022-11-07T10:32:31.310Z,94047.53
2022-11-07T10:35:29.361Z,94048.78
2022-11-07T10:37:58.500Z,94040.53
2022-11-07T10:40:33.529Z,94043.47
2022-11-07T10:43:11.481Z,94035.38
2022-11-07T10:45:39.168Z,94029.47
2022-11-07T10:48:06.089Z,94028.38
2022-11-07T10:50:32.594Z,94022.44
2022-11-07T10:53:09.750Z,94021.31
2022-11-07T10:55:45.275Z,94008.59
2022-11-07T10:58:35.698Z,94035.00
2022-11-07T11:01:27.361Z,94016.19
2022-11-07T11:03:54.246Z,94037.16
2022-11-07T11:06:29.009Z,94013.81
2022-11-07T11:08:55.687Z,94011.13
2022-11-07T11:11:22.028Z,94028.41
2022-11-07T11:13:49.185Z,94024.03
2022-11-07T11:16:27.048Z,94029.31
2022-11-07T11:18:59.057Z,93998.72
2022-11-07T11:21:25.717Z,94002.34
2022-11-07T11:23:54.292Z,94000.22
2022-11-07T11:26:40.355Z,94003.28
2022-11-07T11:29:41.637Z,94014.25
2022-11-07T11:32:41.121Z,94000.22
2022-11-07T11:35:12.581Z,94016.13
2022-11-07T11:38:19.725Z,94013.38
2022-11-07T11:41:03.287Z,93995.53
2022-11-07T11:43:48.600Z,94005.72
2022-11-07T11:46:25.252Z,94008.41
2022-11-07T11:49:19.340Z,93997.88
2022-11-07T11:52:24.062Z,94000.53
2022-11-07T11:54:52.788Z,93975.97
2022-11-07T11:57:37.902Z,94004.16
2022-11-07T12:00:18.814Z,93975.94
2022-11-07T12:02:48.421Z,93996.91
2022-11-07T12:05:25.977Z,93980.00
2022-11-07T12:08:06.606Z,94000.97
2022-11-07T12:10:49.066Z,93980.34
2022-11-07T12:13:37.667Z,93992.91
2022-11-07T12:16:41.760Z,93991.66
2022-11-07T12:19:31.000Z,94000.34
2022-11-07T12:22:35.444Z,93990.31
2022-11-07T12:25:27.746Z,93990.22
2022-11-07T12:28:04.912Z,93990.41
2022-11-07T12:31:03.242Z,93988.69
2022-11-07T12:34:09.373Z,93992.63
2022-11-07T12:37:15.565Z,93987.16
2022-11-07T12:40:33.911Z,93983.25
2022-11-07T12:43:50.310Z,93990.53
2022-11-07T12:46:51.742Z,93980.03
2022-11-07T12:49:36.600Z,93986.53
2022-11-07T12:52:24.573Z,93983.06
2022-11-07T12:55:31.013Z,93986.13
2022-11-07T12:57:59.427Z,93981.09
2022-11-07T13:00:30.248Z,93978.38
2022-11-07T13:03:39.918Z,93976.63
2022-11-07T13:06:22.768Z,93968.84
2022-11-07T13:09:23.047Z,93979.22
2022-11-07T13:11:58.918Z,93973.84
2022-11-07T13:14:34.337Z,93958.63
2022-11-07T13:17:27.595Z,93970.47
2022-11-07T13:20:26.308Z,93973.78
2022-11-07T13:23:14.047Z,93971.81
2022-11-07T13:25:58.823Z,93979.34
2022-11-07T13:28:36.591Z,93968.81
2022-11-07T13:31:07.819Z,93983.34
2022-11-07T13:33:44.693Z,93980.00
2022-11-07T13:36:26.039Z,93981.91
2022-11-07T13:38:56.736Z,93983.47
2022-11-07T13:41:24.294Z,93974.22
2022-11-07T13:43:53.135Z,93992.22
2022-11-07T13:46:35.668Z,93975.69
2022-11-07T13:49:26.150Z,93990.38
2022-11-07T13:52:31.548Z,93979.81
2022-11-07T13:55:41.518Z,93986.69
2022-11-07T13:58:16.647Z,93953.25
2022-11-07T14:00:44.418Z,93964.25
2022-11-07T14:03:23.653Z,93975.47
2022-11-07T14:05:56.732Z,93965.09
2022-11-07T14:08:31.271Z,93970.66
2022-11-07T14:10:58.935Z,93969.19
2022-11-07T14:13:30.264Z,93988.50
2022-11-07T14:15:59.538Z,93995.72
2022-11-07T14:18:31.846Z,93996.19
2022-11-07T14:21:39.856Z,94005.72
2022-11-07T14:24:26.811Z,93997.78
2022-11-07T14:27:05.493Z,94005.38
2022-11-07T14:29:32.549Z,93983.56
2022-11-07T14:32:01.499Z,93999.78
2022-11-07T14:34:28.647Z,94001.28
2022-11-07T14:37:01.171Z,93999.56
2022-11-07T14:39:31.504Z,93994.31
2022-11-07T14:42:00.133Z,93969.34
2022-11-07T14:44:54.883Z,93979.59
2022-11-07T14:47:26.120Z,93998.00
2022-11-07T14:49:54.325Z,93983.72
2022-11-07T14:52:25.517Z,94007.22
2022-11-07T14:55:11.169Z,93987.25
2022-11-07T14:57:39.632Z,93985.91
2022-11-07T15:00:08.154Z,93971.59
2022-11-07T15:02:35.776Z,93985.19
2022-11-07T15:05:09.600Z,93980.03
2022-11-07T15:07:47.006Z,93991.31
2022-11-07T15:10:31.996Z,93974.34
2022-11-07T15:13:02.014Z,93979.66
2022-11-07T15:15:36.830Z,93976.22
2022-11-07T15:18:06.487Z,93972.91
2022-11-07T15:20:35.906Z,94002.72
2022-11-07T15:23:06.256Z,93983.16
2022-11-07T15:25:41.548Z,93993.22
2022-11-07T15:28:42.101Z,93993.00
2022-11-07T15:31:39.426Z,94000.72
2022-11-07T15:34:10.128Z,93992.38
2022-11-07T15:36:41.314Z,94010.06
2022-11-07T15:39:35.817Z,94002.41
2022-11-07T15:42:02.219Z,93980.97
2022-11-07T15:44:28.650Z,93972.34
2022-11-07T15:46:55.093Z,93980.78
2022-11-07T15:49:21.682Z,93982.44
2022-11-07T15:52:28.833Z,93999.34
2022-11-07T15:55:21.629Z,93998.19
2022-11-07T15:57:51.659Z,93974.44
2022-11-07T16:00:20.943Z,93995.38
2022-11-07T16:02:49.524Z,93962.34
2022-11-07T16:05:17.264Z,93973.19
2022-11-07T16:07:53.912Z,93953.03
2022-11-07T16:10:25.997Z,93975.16
2022-11-07T16:12:53.694Z,93983.38
2022-11-07T16:15:25.744Z,93977.56
2022-11-07T16:17:52.213Z,93999.72
2022-11-07T16:20:21.504Z,93999.72
2022-11-07T16:22:49.362Z,93984.81
2022-11-07T16:25:24.879Z,93980.75
2022-11-07T16:28:32.678Z,93996.81
2022-11-07T16:31:05.382Z,93998.44
2022-11-07T16:33:31.882Z,93989.34
2022-11-07T16:36:07.657Z,94006.13
2022-11-07T16:38:44.178Z,94008.50
2022-11-07T16:41:12.006Z,94001.66
2022-11-07T16:43:39.586Z,94002.81
2022-11-07T16:46:19.999Z,94025.38
2022-11-07T16:48:49.431Z,94018.56
2022-11-07T16:51:21.533Z,94015.81
2022-11-07T16:53:48.369Z,94020.19
2022-11-07T16:56:39.868Z,94000.50
2022-11-07T16:59:18.301Z,94006.19
2022-11-07T17:01:44.982Z,93988.47
2022-11-07T17:04:11.486Z,93988.84
2022-11-07T17:06:43.341Z,93979.00
2022-11-07T17:09:13.656Z,94000.59
2022-11-07T17:11:40.244Z,93999.28
2022-11-07T17:14:06.671Z,93989.97
2022-11-07T17:16:36.491Z,94020.16
2022-11-07T17:19:04.796Z,94018.50
2022-11-07T17:21:43.682Z,94021.84
2022-11-07T17:24:10.429Z,94004.00
2022-11-07T17:26:38.733Z,93994.00
2022-11-07T17:29:06.993Z,94021.31
2022-11-07T17:31:33.506Z,94004.97
2022-11-07T17:33:59.907Z,94021.31
2022-11-07T17:36:45.852Z,94016.56
2022-11-07T17:39:16.129Z,94011.81
2022-11-07T17:41:45.033Z,94020.53
2022-11-07T17:44:12.103Z,93996.91
2022-11-07T17:46:47.862Z,93993.63
2022-11-07T17:49:17.790Z,93990.16
2022-11-07T17:51:44.432Z,93997.19
2022-11-07T17:54:13.285Z,93994.19
2022-11-07T17:56:40.623Z,94006.47
2022-11-07T17:59:10.567Z,93976.19
2022-11-07T18:01:38.343Z,93972.16
2022-11-07T18:04:06.515Z,94005.13
2022-11-07T18:06:38.848Z,94006.78
2022-11-07T18:09:06.719Z,93988.59
2022-11-07T18:11:34.995Z,93997.88
2022-11-07T18:14:03.032Z,93994.25
2022-11-07T18:16:32.723Z,94000.88
2022-11-07T18:19:00.908Z,93982.09
2022-11-07T18:21:27.840Z,93975.00
2022-11-07T18:23:54.328Z,93983.81
2022-11-07T18:26:30.145Z,93975.97
2022-11-07T18:29:00.093Z,93991.19
2022-11-07T18:31:26.531Z,93984.75
2022-11-07T18:33:58.080Z,93978.56
2022-11-07T18:36:24.965Z,93999.28
2022-11-07T18:38:51.372Z,93991.28
2022-11-07T18:41:45.902Z,94010.69
2022-11-07T18:44:13.133Z,94009.50
2022-11-07T18:46:40.039Z,94010.41
2022-11-07T18:49:06.539Z,93992.88
2022-11-07T18:51:34.193Z,93975.41
2022-11-07T18:54:02.736Z,94013.97
2022-11-07T18:56:29.380Z,94017.34
2022-11-07T18:58:56.252Z,94019.31
2022-11-07T19:01:28.020Z,94015.53
2022-11-07T19:03:56.567Z,93993.94
2022-11-07T19:06:25.070Z,94006.97
2022-11-07T19:08:51.638Z,93990.22
2022-11-07T19:11:21.756Z,94001.91
2022-11-07T19:13:49.200Z,93982.84
2022-11-07T19:16:17.602Z,93998.69
2022-11-07T19:18:49.189Z,93979.91
2022-11-07T19:21:19.742Z,93994.81
2022-11-07T19:23:47.317Z,94005.66
2022-11-07T19:26:14.212Z,93969.63
2022-11-07T19:28:40.891Z,94002.94
2022-11-07T19:31:10.718Z,93985.81
2022-11-07T19:33:37.160Z,94010.06
2022-11-07T19:36:06.609Z,93992.34
2022-11-07T19:38:33.299Z,94022.50
2022-11-07T19:41:05.614Z,94018.66
2022-11-07T19:43:32.756Z,94009.97
2022-11-07T19:45:59.246Z,93988.47
2022-11-07T19:48:25.817Z,94000.84
2022-11-07T19:50:52.335Z,93995.13
2022-11-07T19:53:19.037Z,93993.72
2022-11-07T19:55:45.681Z,93983.53
2022-11-07T19:58:12.134Z,93982.59
2022-11-07T20:00:38.671Z,93991.94
2022-11-07T20:03:05.377Z,93991.91
2022-11-07T20:05:34.283Z,94015.59
2022-11-07T20:08:15.106Z,93996.69
2022-11-07T20:10:46.204Z,93989.41
2022-11-07T20:13:12.634Z,93992.59
2022-11-07T20:15:40.167Z,94010.72
2022-11-07T20:18:06.622Z,94017.81
2022-11-07T20:20:33.080Z,93993.50
2022-11-07T20:23:03.625Z,94001.00
2022-11-07T20:25:30.051Z,93983.56
2022-11-07T20:27:56.572Z,94004.13
2022-11-07T20:30:22.971Z,94005.94
2022-11-07T20:32:49.349Z,93974.50
2022-11-07T20:35:15.838Z,94010.78
2022-11-07T20:37:44.214Z,93988.31
2022-11-07T20:40:11.171Z,93983.97
2022-11-07T20:42:37.560Z,93992.66
2022-11-07T20:45:04.201Z,94014.06
2022-11-07T20:47:30.583Z,94007.91
2022-11-07T20:49:56.963Z,94009.56
2022-11-07T20:52:23.561Z,93988.16
2022-11-07T20:54:50.981Z,93981.06
2022-11-07T20:57:18.133Z,94013.41
2022-11-07T20:59:45.375Z,94025.72
2022-11-07T21:02:12.949Z,94006.63
2022-11-07T21:04:56.145Z,94019.22
2022-11-07T21:07:25.851Z,94003.38
2022-11-07T21:09:52.477Z,94011.78
2022-11-07T21:12:18.919Z,94002.09
2022-11-07T21:14:45.908Z,94026.38
2022-11-07T21:17:12.482Z,94000.16
2022-11-07T21:19:38.868Z,94000.47
2022-11-07T21:22:07.468Z,93998.22
2022-11-07T21:24:33.844Z,93993.66
2022-11-07T21:27:00.315Z,93979.44
2022-11-07T21:29:29.831Z,93998.34
2022-11-07T21:31:56.900Z,94005.47
2022-11-07T21:34:23.865Z,93998.81
2022-11-07T21:36:50.332Z,93990.72
2022-11-07T21:39:17.390Z,93979.38
2022-11-07T21:41:43.822Z,93983.13
2022-11-07T21:44:12.172Z,93980.38
2022-11-07T21:46:38.792Z,93988.47
2022-11-07T21:49:06.221Z,93987.84
2022-11-07T21:51:35.223Z,94011.47
2022-11-07T21:54:03.602Z,94004.66
2022-11-07T21:56:36.266Z,94010.50
2022-11-07T21:59:05.820Z,94007.88
2022-11-07T22:01:34.778Z,94000.25
2022-11-07T22:04:07.302Z,94004.28
2022-11-07T22:06:37.864Z,93996.19
2022-11-07T22:09:05.245Z,94008.16
2022-11-07T22:11:32.042Z,93969.44
2022-11-07T22:13:58.472Z,93978.22
2022-11-07T22:16:25.096Z,94002.66
2022-11-07T22:18:51.672Z,93985.50
2022-11-07T22:21:20.983Z,93979.94
2022-11-07T22:23:48.278Z,93997.75
2022-11-07T22:26:20.531Z,94008.75
2022-11-07T22:28:47.663Z,93999.34
2022-11-07T22:31:17.018Z,94006.09
2022-11-07T22:33:43.781Z,94004.16
2022-11-07T22:36:11.515Z,93993.78
2022-11-07T22:38:38.981Z,93973.66
2022-11-07T22:41:07.374Z,93976.09
2022-11-07T22:43:34.484Z,93981.59
2022-11-07T22:46:06.032Z,93981.75
2022-11-07T22:48:33.233Z,93959.88
2022-11-07T22:51:19.829Z,93979.31
2022-11-07T22:53:46.621Z,93978.16
2022-11-07T22:56:16.082Z,93964.63
2022-11-07T22:58:43.835Z,93967.16
2022-11-07T23:01:19.126Z,93957.97
2022-11-07T23:03:46.762Z,93973.66
2022-11-07T23:06:13.265Z,93950.66
2022-11-07T23:08:39.921Z,93973.66
2022-11-07T23:14:05.011Z,93961.00
2022-11-07T23:16:36.741Z,93922.75
2022-11-07T23:19:07.617Z,93955.47
2022-11-07T23:21:35.181Z,93956.56
2022-11-07T23:24:01.970Z,93926.47
2022-11-07T23:26:36.029Z,93944.19
2022-11-07T23:29:10.790Z,93955.13
2022-11-07T23:31:41.679Z,93950.91
2022-11-07T23:34:08.258Z,93939.53
2022-11-07T23:36:35.282Z,93953.13
2022-11-07T23:39:07.000Z,93919.09
2022-11-07T23:41:33.880Z,93951.59
2022-11-07T23:44:00.380Z,93922.66
2022-11-07T23:46:45.615Z,93937.91
2022-11-07T23:49:30.394Z,93907.25
2022-11-07T23:51:56.841Z,93934.19
2022-11-07T23:54:41.866Z,93902.75
2022-11-07T23:57:08.247Z,93920.38
2022-11-07T23:59:53.870Z,93930.56
